createdAt,value
2023-05-21T16:59:40.339Z,32.24
2023-05-21T17:02:27.510Z,32.70
2023-05-21T17:05:14.437Z,33.14
2023-05-21T17:08:01.302Z,33.91
2023-05-21T17:10:48.305Z,34.86
2023-05-21T17:13:35.224Z,35.66
2023-05-21T17:16:22.329Z,36.30
2023-05-21T17:19:09.309Z,33.60
2023-05-21T17:21:56.425Z,35.59
2023-05-21T17:24:43.337Z,35.70
2023-05-21T17:27:30.598Z,35.67
2023-05-21T17:30:17.536Z,36.21
2023-05-21T17:33:04.544Z,35.71
2023-05-21T17:35:51.722Z,37.83
2023-05-21T17:38:38.750Z,37.27
2023-05-21T17:41:25.982Z,37.65
2023-05-21T17:44:13.826Z,38.17
2023-05-21T17:47:01.332Z,37.73
2023-05-21T17:49:48.364Z,38.92
2023-05-21T17:52:35.354Z,38.65
2023-05-21T17:55:22.258Z,39.49
2023-05-21T17:58:09.994Z,38.13
2023-05-21T18:00:57.664Z,38.15
2023-05-21T18:03:44.701Z,38.96
2023-05-21T18:06:32.748Z,39.62
2023-05-21T18:09:19.668Z,39.34
2023-05-21T18:12:07.232Z,39.85
2023-05-21T18:14:54.419Z,39.98
2023-05-21T18:17:41.384Z,39.90
2023-05-21T18:20:28.377Z,40.32
2023-05-21T18:23:15.419Z,40.67
2023-05-21T18:26:02.474Z,39.93
2023-05-21T18:28:49.803Z,40.28
2023-05-21T18:31:36.753Z,40.27
2023-05-21T18:34:23.576Z,40.50
2023-05-21T18:37:11.003Z,41.14
2023-05-21T18:39:57.957Z,41.23
2023-05-21T18:42:45.152Z,41.24
2023-05-21T18:45:32.795Z,42.20
2023-05-21T18:48:19.604Z,42.10
2023-05-21T18:51:06.522Z,43.01
2023-05-21T18:53:53.421Z,43.16
2023-05-21T18:56:40.385Z,43.74
2023-05-21T18:59:28.361Z,43.97
2023-05-21T19:02:15.394Z,44.26
2023-05-21T19:05:02.903Z,44.76
2023-05-21T19:07:49.878Z,45.05
2023-05-21T19:10:39.106Z,45.37
2023-05-21T19:13:26.303Z,45.56
2023-05-21T19:16:14.281Z,46.00
2023-05-21T19:19:02.033Z,45.52
2023-05-21T19:21:49.074Z,46.06
2023-05-21T19:24:35.979Z,46.08
2023-05-21T19:27:22.938Z,46.18
2023-05-21T19:30:10.389Z,46.40
2023-05-21T19:32:57.459Z,46.22
2023-05-21T19:35:44.461Z,46.62
2023-05-21T19:38:31.594Z,47.30
2023-05-21T19:41:19.534Z,47.63
2023-05-21T19:44:06.539Z,47.47
2023-05-21T19:46:54.457Z,47.66
2023-05-21T19:49:41.431Z,47.43
2023-05-21T19:52:28.404Z,47.99
2023-05-21T19:55:20.173Z,47.50
